createdAt,value
2019-02-02T00:01:05.383Z,87.37
2019-02-02T00:03:32.036Z,87.07
2019-02-02T00:05:59.387Z,89.17
2019-02-02T00:08:25.824Z,91.80
2019-02-02T00:10:52.459Z,87.83
2019-02-02T00:13:19.186Z,89.07
2019-02-02T00:15:47.561Z,87.60
2019-02-02T00:18:14.290Z,97.90
2019-02-02T00:20:40.923Z,91.50
2019-02-02T00:23:07.661Z,91.53
2019-02-02T00:25:34.096Z,85.10
2019-02-02T00:28:00.981Z,91.57
2019-02-02T00:30:27.843Z,94.93
2019-02-02T00:32:55.646Z,87.37
2019-02-02T00:35:21.805Z,83.73
2019-02-02T00:37:48.670Z,86.43
2019-02-02T00:40:18.052Z,83.90
2019-02-02T00:42:45.290Z,88.43
2019-02-02T00:45:14.883Z,89.60
2019-02-02T00:47:41.745Z,87.73
2019-02-02T00:50:11.077Z,90.67
2019-02-02T00:52:37.869Z,92.20
2019-02-02T00:55:16.073Z,84.73
2019-02-02T00:57:53.112Z,90.50
2019-02-02T01:00:15.178Z,93.60
2019-02-02T01:02:42.105Z,87.40
2019-02-02T01:05:36.448Z,94.30
2019-02-02T01:08:03.733Z,89.67
2019-02-02T01:10:33.080Z,88.03
2019-02-02T01:12:59.879Z,95.20
2019-02-02T01:15:27.318Z,95.57
2019-02-02T01:17:54.062Z,94.17
2019-02-02T01:20:21.264Z,92.20
2019-02-02T01:22:48.281Z,91.77
2019-02-02T01:25:15.724Z,95.43
2019-02-02T01:27:42.921Z,97.27
2019-02-02T01:30:12.585Z,97.47
2019-02-02T01:32:39.195Z,91.33
2019-02-02T01:35:08.261Z,92.10
2019-02-02T01:37:35.373Z,100.87
2019-02-02T01:40:02.028Z,96.47
2019-02-02T01:42:28.754Z,96.00
2019-02-02T01:44:55.322Z,94.13
2019-02-02T01:47:21.823Z,90.53
2019-02-02T01:49:48.574Z,93.93
2019-02-02T01:52:15.637Z,95.50
2019-02-02T01:54:42.457Z,98.37
2019-02-02T01:57:09.258Z,96.87
2019-02-02T01:59:36.207Z,93.57
2019-02-02T02:02:03.161Z,97.33
2019-02-02T02:04:29.643Z,98.83
2019-02-02T02:06:56.364Z,98.07
2019-02-02T02:09:23.373Z,89.20
2019-02-02T02:11:50.274Z,94.23
2019-02-02T02:14:17.233Z,96.70
2019-02-02T02:16:43.863Z,96.33
2019-02-02T02:19:10.396Z,102.33
2019-02-02T02:21:37.033Z,106.20
2019-02-02T02:24:03.903Z,101.83
2019-02-02T02:26:30.456Z,93.13
2019-02-02T02:28:57.678Z,98.60
2019-02-02T02:31:24.499Z,97.97
2019-02-02T02:33:50.990Z,104.17
2019-02-02T02:36:17.876Z,105.90
2019-02-02T02:38:44.681Z,99.70
2019-02-02T02:41:11.419Z,99.90
2019-02-02T02:43:37.919Z,105.40
2019-02-02T02:46:04.388Z,88.53
2019-02-02T02:48:30.961Z,98.07
2019-02-02T02:50:57.511Z,100.77
2019-02-02T02:53:24.638Z,97.87
2019-02-02T02:55:51.661Z,99.60
2019-02-02T02:58:18.131Z,95.63
2019-02-02T03:00:44.782Z,91.90
2019-02-02T03:03:11.779Z,95.37
2019-02-02T03:05:38.359Z,104.23
2019-02-02T03:08:05.623Z,100.00
2019-02-02T03:10:32.930Z,104.20
2019-02-02T03:12:59.523Z,109.63
2019-02-02T03:15:26.142Z,105.87
2019-02-02T03:17:53.288Z,108.27
2019-02-02T03:20:19.885Z,105.57
2019-02-02T03:22:46.905Z,102.80
2019-02-02T03:25:20.339Z,106.30
2019-02-02T03:27:47.045Z,104.87
2019-02-02T03:30:15.895Z,100.67
2019-02-02T03:32:42.354Z,112.13
2019-02-02T03:35:10.648Z,111.80
2019-02-02T03:37:37.348Z,110.93
2019-02-02T03:40:07.655Z,110.73
2019-02-02T03:42:34.218Z,120.60
2019-02-02T03:45:00.778Z,111.93
2019-02-02T03:47:27.317Z,118.67
2019-02-02T03:49:54.121Z,117.50
2019-02-02T03:52:20.723Z,113.53
2019-02-02T03:54:47.124Z,116.90
2019-02-02T03:57:13.829Z,118.97
2019-02-02T03:59:40.638Z,119.73
2019-02-02T04:02:07.367Z,103.37
2019-02-02T04:04:34.061Z,118.10
2019-02-02T04:07:00.552Z,118.23
2019-02-02T04:09:27.294Z,114.07
2019-02-02T04:11:54.001Z,121.40
2019-02-02T04:14:20.979Z,118.23
2019-02-02T04:16:47.558Z,116.10
2019-02-02T04:19:14.137Z,122.47
2019-02-02T04:21:40.728Z,115.80
2019-02-02T04:24:07.541Z,125.50
2019-02-02T04:26:34.005Z,121.20
2019-02-02T04:29:00.893Z,111.97
2019-02-02T04:31:27.587Z,118.10
2019-02-02T04:33:54.717Z,121.83
2019-02-02T04:36:21.686Z,135.03
2019-02-02T04:38:48.404Z,119.57
2019-02-02T04:41:15.086Z,120.03
2019-02-02T04:43:41.773Z,114.60
2019-02-02T04:46:08.450Z,119.90
2019-02-02T04:48:34.964Z,108.53
2019-02-02T04:51:01.767Z,113.23
2019-02-02T04:53:28.606Z,121.17
2019-02-02T04:55:55.325Z,131.33
2019-02-02T04:58:21.977Z,118.83
2019-02-02T05:00:48.682Z,126.83
2019-02-02T05:03:15.395Z,123.93
2019-02-02T05:05:42.492Z,115.47
2019-02-02T05:08:09.229Z,112.57
2019-02-02T05:10:36.222Z,120.70
2019-02-02T05:13:03.076Z,110.03
2019-02-02T05:15:30.117Z,118.50
2019-02-02T05:17:56.754Z,115.60
2019-02-02T05:20:23.662Z,118.37
2019-02-02T05:22:50.551Z,117.97
2019-02-02T05:25:17.624Z,114.87
2019-02-02T05:27:44.366Z,114.10
2019-02-02T05:30:22.954Z,117.17
2019-02-02T05:32:49.924Z,119.20
2019-02-02T05:35:16.557Z,117.87
2019-02-02T05:37:43.186Z,113.80
2019-02-02T05:40:13.329Z,117.53
2019-02-02T05:42:39.871Z,117.03
2019-02-02T05:45:09.301Z,117.20
2019-02-02T05:47:35.683Z,116.70
2019-02-02T05:50:03.011Z,117.73
2019-02-02T05:52:29.440Z,115.43
2019-02-02T05:54:56.591Z,114.00
2019-02-02T05:57:23.184Z,111.10
2019-02-02T05:59:52.867Z,115.33
2019-02-02T06:02:18.267Z,114.07
2019-02-02T06:04:45.343Z,110.67
2019-02-02T06:07:11.869Z,118.63
2019-02-02T06:09:38.413Z,106.40
2019-02-02T06:12:05.564Z,115.23
2019-02-02T06:14:31.995Z,117.47
2019-02-02T06:16:58.529Z,123.30
2019-02-02T06:19:25.038Z,113.97
2019-02-02T06:21:51.541Z,124.43
2019-02-02T06:24:17.909Z,122.00
2019-02-02T06:26:44.416Z,108.80
2019-02-02T06:29:10.914Z,110.03
2019-02-02T06:31:37.927Z,119.00
2019-02-02T06:34:04.458Z,111.30
2019-02-02T06:36:30.876Z,110.37
2019-02-02T06:38:57.441Z,110.40
2019-02-02T06:41:24.478Z,115.63
2019-02-02T06:43:50.795Z,116.33
2019-02-02T06:46:17.483Z,109.93
2019-02-02T06:48:43.886Z,111.03
2019-02-02T06:51:10.813Z,106.03
2019-02-02T06:53:37.182Z,106.07
2019-02-02T06:56:04.030Z,111.23
2019-02-02T06:58:31.006Z,117.87
2019-02-02T07:00:57.967Z,108.70
2019-02-02T07:03:24.544Z,115.37
2019-02-02T07:05:51.390Z,107.43
2019-02-02T07:08:17.834Z,103.90
2019-02-02T07:10:44.391Z,103.87
2019-02-02T07:13:10.955Z,105.80
2019-02-02T07:15:37.515Z,104.13
2019-02-02T07:21:15.986Z,107.63
2019-02-02T07:23:56.954Z,106.73
2019-02-02T07:26:26.889Z,104.20
2019-02-02T07:28:53.188Z,105.47
2019-02-02T07:31:19.767Z,107.03
2019-02-02T07:33:46.572Z,108.20
2019-02-02T07:36:13.090Z,104.40
2019-02-02T07:38:39.475Z,106.97
2019-02-02T07:41:08.146Z,105.23
2019-02-02T07:43:35.390Z,92.63
2019-02-02T07:46:01.867Z,101.90
2019-02-02T07:48:28.806Z,109.90
2019-02-02T07:50:55.339Z,94.30
2019-02-02T07:53:22.148Z,97.67
2019-02-02T07:55:48.973Z,100.87
2019-02-02T07:58:15.766Z,97.17
2019-02-02T08:00:42.662Z,99.67
2019-02-02T08:03:09.604Z,96.93
2019-02-02T08:05:36.441Z,94.20
2019-02-02T08:08:04.305Z,96.67
2019-02-02T08:10:30.709Z,108.37
2019-02-02T08:12:57.434Z,98.97
2019-02-02T08:15:32.384Z,95.40
2019-02-02T08:18:01.167Z,103.63
2019-02-02T08:20:28.802Z,99.67
2019-02-02T08:22:56.618Z,98.57
2019-02-02T08:25:23.424Z,93.77
2019-02-02T08:27:49.726Z,101.73
2019-02-02T08:30:21.113Z,102.20
2019-02-02T08:32:49.692Z,100.10
2019-02-02T08:35:16.413Z,101.13
2019-02-02T08:37:43.432Z,96.53
2019-02-02T08:40:16.681Z,98.93
2019-02-02T08:42:43.260Z,93.40
2019-02-02T08:45:14.352Z,99.23
2019-02-02T08:47:45.241Z,97.47
2019-02-02T08:50:18.443Z,104.87
2019-02-02T08:52:45.400Z,92.50
2019-02-02T08:55:12.219Z,93.90
2019-02-02T08:57:39.144Z,92.53
2019-02-02T09:00:12.374Z,99.73
2019-02-02T09:02:41.040Z,101.97
2019-02-02T09:05:10.717Z,94.80
2019-02-02T09:07:38.432Z,92.67
2019-02-02T09:10:15.332Z,90.63
2019-02-02T09:12:42.240Z,99.17
2019-02-02T09:15:11.868Z,94.10
2019-02-02T09:17:41.114Z,88.03
2019-02-02T09:20:11.653Z,99.70
2019-02-02T09:22:38.775Z,97.73
2019-02-02T09:28:30.819Z,88.00
2019-02-02T09:31:02.007Z,104.03
2019-02-02T09:33:28.604Z,93.83
2019-02-02T09:35:55.523Z,93.20
2019-02-02T09:38:22.150Z,93.43
2019-02-02T09:40:49.165Z,88.83
2019-02-02T09:43:22.923Z,84.73
2019-02-02T09:48:53.377Z,86.60
2019-02-02T09:51:19.948Z,91.23
2019-02-02T09:53:46.461Z,88.57
2019-02-02T09:56:12.734Z,92.90
2019-02-02T09:58:39.398Z,97.03
2019-02-02T10:01:05.898Z,88.47
2019-02-02T10:07:08.188Z,82.70
2019-02-02T10:09:34.798Z,82.23
2019-02-02T10:15:14.239Z,89.20
2019-02-02T10:17:40.770Z,87.63
2019-02-02T10:20:11.397Z,85.07
2019-02-02T10:22:38.191Z,84.30
2019-02-02T10:25:08.834Z,86.20
2019-02-02T10:31:10.871Z,85.97
2019-02-02T10:33:37.388Z,88.90
2019-02-02T10:36:03.869Z,82.93
2019-02-02T10:38:33.687Z,83.47
2019-02-02T10:41:00.341Z,83.80
2019-02-02T10:43:27.180Z,76.53
2019-02-02T10:45:54.119Z,93.13
2019-02-02T10:48:20.869Z,79.00
2019-02-02T10:50:47.490Z,82.00
2019-02-02T10:53:14.029Z,90.00
2019-02-02T10:55:40.339Z,78.73
2019-02-02T10:58:06.887Z,84.67
2019-02-02T11:04:09.188Z,80.63
2019-02-02T11:06:35.971Z,85.17
2019-02-02T11:09:06.600Z,79.43
2019-02-02T11:11:33.257Z,75.10
2019-02-02T11:13:59.757Z,84.83
2019-02-02T11:16:26.178Z,85.63
2019-02-02T11:18:52.725Z,82.43
2019-02-02T11:21:19.125Z,78.23
2019-02-02T11:23:45.898Z,89.00
2019-02-02T11:26:12.623Z,92.07
2019-02-02T11:28:39.005Z,81.13
2019-02-02T11:34:16.876Z,82.17
2019-02-02T11:40:10.359Z,84.67
2019-02-02T11:45:48.609Z,79.70
2019-02-02T11:48:15.325Z,80.70
2019-02-02T11:50:41.903Z,75.57
2019-02-02T11:53:08.697Z,74.10
2019-02-02T11:55:35.314Z,72.13
2019-02-02T11:58:01.904Z,70.53
2019-02-02T12:00:35.267Z,68.23
2019-02-02T12:03:41.459Z,73.80
2019-02-02T12:06:07.698Z,65.20
2019-02-02T12:08:33.899Z,63.87
2019-02-02T12:11:00.299Z,67.83
2019-02-02T12:17:01.300Z,69.27
2019-02-02T12:19:27.631Z,63.97
2019-02-02T12:25:18.612Z,67.00
2019-02-02T12:31:08.869Z,71.17
2019-02-02T12:36:59.524Z,60.70
2019-02-02T12:39:25.900Z,53.93
2019-02-02T12:41:52.167Z,58.77
2019-02-02T12:47:42.253Z,60.17
2019-02-02T12:50:11.161Z,65.20
2019-02-02T12:52:37.648Z,62.13
2019-02-02T12:55:07.254Z,61.30
2019-02-02T12:57:33.846Z,64.90
2019-02-02T13:00:00.881Z,58.30
2019-02-02T13:02:37.586Z,60.30
2019-02-02T13:04:55.272Z,59.10
2019-02-02T13:07:21.749Z,59.57
2019-02-02T13:09:48.116Z,51.87
2019-02-02T13:12:15.098Z,55.70
2019-02-02T13:14:42.322Z,52.57
2019-02-02T13:20:19.970Z,52.37
2019-02-02T13:22:46.812Z,55.40
2019-02-02T13:25:16.249Z,56.10
2019-02-02T13:31:06.639Z,51.73
2019-02-02T13:33:33.594Z,65.27
2019-02-02T13:36:00.239Z,56.03
2019-02-02T13:41:38.234Z,56.93
2019-02-02T13:44:04.858Z,45.00
2019-02-02T13:49:54.901Z,50.20
2019-02-02T13:52:21.190Z,46.70
2019-02-02T13:57:59.955Z,49.53
2019-02-02T14:03:52.580Z,48.10
2019-02-02T14:12:35.518Z,47.13
2019-02-02T14:18:38.090Z,50.10
2019-02-02T14:24:28.997Z,43.47
2019-02-02T14:26:55.623Z,44.17
2019-02-02T14:29:22.085Z,42.53
2019-02-02T14:31:48.745Z,43.70
2019-02-02T14:34:15.590Z,38.93
2019-02-02T14:36:42.307Z,39.27
2019-02-02T14:39:09.604Z,32.50
2019-02-02T14:41:36.610Z,37.83
2019-02-02T14:44:03.540Z,31.07
2019-02-02T14:46:30.492Z,29.13
2019-02-02T14:48:56.903Z,27.37
2019-02-02T14:54:46.820Z,24.33
2019-02-02T14:57:13.549Z,19.77
2019-02-02T14:59:40.109Z,23.53
2019-02-02T15:02:06.516Z,23.80
2019-02-02T15:04:32.664Z,22.17
2019-02-02T15:06:59.324Z,26.63
2019-02-02T15:09:26.256Z,24.47
2019-02-02T15:11:52.818Z,24.57
2019-02-02T15:14:19.399Z,23.13
2019-02-02T15:16:46.182Z,24.70
2019-02-02T15:19:12.705Z,23.37
2019-02-02T15:24:50.058Z,22.57
2019-02-02T15:27:16.659Z,19.87
2019-02-02T15:33:06.813Z,21.10
2019-02-02T15:35:33.570Z,22.77
2019-02-02T15:41:24.060Z,21.37
2019-02-02T15:43:50.761Z,17.30
2019-02-02T15:46:17.212Z,19.70
2019-02-02T15:48:44.080Z,19.60
2019-02-02T15:51:11.223Z,17.53
2019-02-02T15:57:01.936Z,16.03
2019-02-02T15:59:28.899Z,17.43
2019-02-02T16:01:55.301Z,16.80
2019-02-02T16:04:21.794Z,16.27
2019-02-02T16:10:23.853Z,18.83
2019-02-02T16:16:15.161Z,20.67
2019-02-02T16:21:52.808Z,19.30
2019-02-02T16:27:42.779Z,16.97
2019-02-02T16:30:12.686Z,16.40
2019-02-02T16:36:13.480Z,16.03
2019-02-02T16:38:39.665Z,16.60
2019-02-02T16:41:06.154Z,16.13
2019-02-02T16:46:56.360Z,15.17
2019-02-02T16:52:46.840Z,25.53
2019-02-02T16:58:37.694Z,16.13
2019-02-02T17:01:04.280Z,14.27
2019-02-02T17:03:30.742Z,15.37
2019-02-02T17:05:57.400Z,12.83
2019-02-02T17:08:24.204Z,12.37
2019-02-02T17:10:50.741Z,14.90
2019-02-02T17:13:17.367Z,12.80
2019-02-02T17:15:43.775Z,13.33
2019-02-02T17:18:10.142Z,12.97
2019-02-02T17:20:38.628Z,12.30
2019-02-02T17:23:05.328Z,11.93
2019-02-02T17:25:31.805Z,12.53
2019-02-02T17:27:58.098Z,11.27
2019-02-02T17:30:25.188Z,15.07
2019-02-02T17:32:54.506Z,12.40
2019-02-02T17:38:31.917Z,12.97
2019-02-02T17:40:58.193Z,12.50
2019-02-02T17:46:35.538Z,13.37
2019-02-02T17:49:02.240Z,11.57
2019-02-02T17:51:28.545Z,12.50
2019-02-02T17:53:55.042Z,12.27
2019-02-02T17:56:21.473Z,13.73
2019-02-02T17:58:47.756Z,11.80
2019-02-02T18:01:14.282Z,13.67
2019-02-02T18:03:40.858Z,15.20
2019-02-02T18:09:30.699Z,13.30
2019-02-02T18:15:14.015Z,12.00
2019-02-02T18:17:40.506Z,11.97
2019-02-02T18:23:30.403Z,10.70
2019-02-02T18:25:56.782Z,12.53
2019-02-02T18:28:23.255Z,12.33
2019-02-02T18:30:49.771Z,16.10
2019-02-02T18:33:16.531Z,10.70
2019-02-02T18:39:06.571Z,11.07
2019-02-02T18:41:32.893Z,14.10
2019-02-02T18:44:00.275Z,13.10
2019-02-02T18:46:26.708Z,14.70
2019-02-02T18:48:53.129Z,12.10
2019-02-02T18:54:20.483Z,12.97
2019-02-02T18:56:46.780Z,15.13
2019-02-02T18:59:13.170Z,15.73
2019-02-02T19:01:39.630Z,15.90
2019-02-02T19:04:06.274Z,16.47
2019-02-02T19:06:32.763Z,14.87
2019-02-02T19:08:59.279Z,15.00
2019-02-02T19:11:26.067Z,17.90
2019-02-02T19:13:52.743Z,17.87
2019-02-02T19:16:33.532Z,22.37
2019-02-02T19:19:00.230Z,20.20
2019-02-02T19:21:26.694Z,20.90
2019-02-02T19:23:53.330Z,18.53
2019-02-02T19:26:19.715Z,19.53
2019-02-02T19:28:46.082Z,20.17
2019-02-02T19:34:48.014Z,19.40
2019-02-02T19:37:14.509Z,19.90
2019-02-02T19:39:40.929Z,22.23
2019-02-02T19:42:07.204Z,22.90
2019-02-02T19:44:34.123Z,24.80
2019-02-02T19:47:00.590Z,21.07
2019-02-02T19:49:26.980Z,27.60
2019-02-02T19:55:14.396Z,28.20
2019-02-02T19:57:33.618Z,25.13
2019-02-02T20:00:02.703Z,27.97
2019-02-02T20:02:29.010Z,25.90
2019-02-02T20:04:56.053Z,37.90
2019-02-02T20:07:22.877Z,31.17
2019-02-02T20:09:49.473Z,31.03
2019-02-02T20:15:27.001Z,35.00
2019-02-02T20:17:53.498Z,37.47
2019-02-02T20:20:25.441Z,33.77
2019-02-02T20:22:52.575Z,33.40
2019-02-02T20:28:55.415Z,39.73
2019-02-02T20:31:22.090Z,40.17
2019-02-02T20:37:23.738Z,37.17
2019-02-02T20:39:50.177Z,37.57
2019-02-02T20:42:17.561Z,38.10
2019-02-02T20:44:44.072Z,36.83
2019-02-02T20:47:10.535Z,39.07
2019-02-02T20:49:37.602Z,38.10
2019-02-02T20:52:04.108Z,40.50
2019-02-02T20:54:30.521Z,38.90
2019-02-02T21:00:28.390Z,44.40
2019-02-02T21:02:54.977Z,48.10
2019-02-02T21:05:21.458Z,44.87
2019-02-02T21:07:48.100Z,42.57
2019-02-02T21:10:16.425Z,43.10
2019-02-02T21:12:42.794Z,38.23
2019-02-02T21:15:11.847Z,44.27
2019-02-02T21:17:38.382Z,44.13
2019-02-02T21:20:09.067Z,46.67
2019-02-02T21:22:35.511Z,38.47
2019-02-02T21:25:05.649Z,39.20
2019-02-02T21:30:56.003Z,42.33
2019-02-02T21:36:34.325Z,33.67
2019-02-02T21:39:00.944Z,41.77
2019-02-02T21:41:27.396Z,41.23
2019-02-02T21:43:53.793Z,40.03
2019-02-02T21:46:20.263Z,39.73
2019-02-02T21:48:46.704Z,43.67
2019-02-02T21:51:13.364Z,45.87
2019-02-02T21:53:39.703Z,42.60
2019-02-02T21:56:06.005Z,40.97
2019-02-02T22:01:59.569Z,45.53
2019-02-02T22:07:37.975Z,36.60
2019-02-02T22:13:05.613Z,50.20
2019-02-02T22:15:32.328Z,44.00
2019-02-02T22:21:34.891Z,44.00
2019-02-02T22:24:01.600Z,40.73
2019-02-02T22:26:28.254Z,42.87
2019-02-02T22:28:57.829Z,39.50
2019-02-02T22:34:46.634Z,47.57
2019-02-02T22:40:26.614Z,45.80
2019-02-02T22:46:16.982Z,47.97
2019-02-02T22:48:43.543Z,41.77
2019-02-02T22:51:09.880Z,43.30
2019-02-02T22:53:36.713Z,42.43
2019-02-02T22:56:03.382Z,47.77
2019-02-02T22:58:29.889Z,40.97
2019-02-02T23:01:04.691Z,46.47
2019-02-02T23:06:48.285Z,43.80
2019-02-02T23:09:21.756Z,41.83
2019-02-02T23:12:06.542Z,40.20
2019-02-02T23:14:52.272Z,35.63
2019-02-02T23:17:19.320Z,40.77
2019-02-02T23:19:46.119Z,41.30
2019-02-02T23:22:12.975Z,43.07
2019-02-02T23:24:39.626Z,41.17
2019-02-02T23:27:06.628Z,41.47
2019-02-02T23:29:33.621Z,42.93
2019-02-02T23:32:00.518Z,38.83
2019-02-02T23:34:26.886Z,39.67
2019-02-02T23:36:56.098Z,36.50
2019-02-02T23:39:21.602Z,40.27
2019-02-02T23:41:48.184Z,38.67
2019-02-02T23:44:14.544Z,37.83
2019-02-02T23:46:41.180Z,39.00
2019-02-02T23:49:07.619Z,37.90
2019-02-02T23:51:34.137Z,45.23
2019-02-02T23:54:00.598Z,40.90
2019-02-02T23:56:27.332Z,36.00
2019-02-02T23:58:53.645Z,37.13
